Contact Us:
Email: info@sawbill.com
Phone: (218)663-7150
Fax: (218)663-7980
Mail: 4620 Sawbill Trail
Box 2129
Tofte, MN 55615


Powered by
Movable Type 3.15
 
Sawbill Weather History Archives: February 2012
Current Sawbill Weather History | « January 2012 | March 2012 »


Date

High
Temperature

Low
Temperature

Barometric
Pressure

Relative
Humidity 7AM

9 AM
Temperature

Moisture

Snow

2/29/12 28 23 29.80 76% 28 .11" 1"
2/28/12 28 23 29.77 94% 28 Trace Trace
2/27/12 23 8 30.27 81% 23 .07" 1"
2/26/12 25 9 30.12 73% 9 .4" 7"
2/25/12 21 10 30.00 88% 21 .09" 1.5"
2/24/12 25 10 30.09 69% 13 .05" .5"
2/23/12 26 20 29.74 77% 21 Trace Trace
2/22/12 24 19 29.56 80% 20 .03" .5"
2/21/12 32 22 29.38 87% 22 .3" 3"
2/20/12 34 21 29.53 90% 28 .04" .5"
2/19/12 35 2 30.09 79% 21 0
2/18/12 23 -2 30.15 56% 2 0
2/17/12 26 9 30.15 59% 10 0
2/16/12 28 21 30.03 73% 23 Trace Trace
2/15/12 34 5 29.91 85% 28 .09" 5"
2/14/12 29 5 29.94 58% 5 Trace Trace
2/13/12 28 18 29.74 54% 23 0
2/12/12 24 4 29.88 47% 2 0
2/11/12 7 -10 30.21 58% 2 0
2/10/12 7 -11 30.27 58% -10 0
2/9/12 29 -10 30.24 58% -10 Trace Trace
2/8/12 28 5 29.91 54% 16 0
2/7/12 17 -2 30.27 39% 5 0
2/6/12 29 -2 30.50 57% -2 0
2/5/12 36 19 30.00 85% 25 0
2/4/12 33 19 30.27 79% 19 0
2/3/12 34 23 30.33 92% 26 0
2/2/12 32 27 30.50 78% 28 0
2/1/12 30 25 30.18 91% 27 .12" 1"
 


Home I Trip Planning I Rentals and Outfitting I Reservations I Campgrounds I Sawbill Store I Sawbill News I Contact

© 1997 - 2017, Sawbill Canoe Outfitters, Inc. I Privacy Policy